sensor_id;sensor_type;location;lat;lon;timestamp;temperature;humidity
38860;DHT22;24609;48.316;16.174;2022-12-17T00:01:27;0.00;99.90
38860;DHT22;24609;48.316;16.174;2022-12-17T00:04:11;0.00;99.90
38860;DHT22;24609;48.316;16.174;2022-12-17T00:06:56;0.00;99.90
38860;DHT22;24609;48.316;16.174;2022-12-17T00:09:40;0.00;99.90
38860;DHT22;24609;48.316;16.174;2022-12-17T00:12:24;0.00;99.90
38860;DHT22;24609;48.316;16.174;2022-12-17T00:15:09;0.00;99.90
38860;DHT22;24609;48.316;16.174;2022-12-17T00:18:04;0.00;99.90
38860;DHT22;24609;48.316;16.174;2022-12-17T00:20:56;0.10;99.90
38860;DHT22;24609;48.316;16.174;2022-12-17T00:23:41;0.10;99.90
38860;DHT22;24609;48.316;16.174;2022-12-17T00:26:25;0.10;99.90
38860;DHT22;24609;48.316;16.174;2022-12-17T00:29:09;0.10;99.90
38860;DHT22;24609;48.316;16.174;2022-12-17T00:31:54;0.10;99.90
38860;DHT22;24609;48.316;16.174;2022-12-17T00:34:38;0.10;99.90
38860;DHT22;24609;48.316;16.174;2022-12-17T00:37:22;0.10;99.90
38860;DHT22;24609;48.316;16.174;2022-12-17T00:40:08;0.10;99.90
38860;DHT22;24609;48.316;16.174;2022-12-17T00:43:18;0.10;99.90
38860;DHT22;24609;48.316;16.174;2022-12-17T00:46:03;0.10;99.90
38860;DHT22;24609;48.316;16.174;2022-12-17T00:48:47;0.10;99.90
38860;DHT22;24609;48.316;16.174;2022-12-17T00:51:32;0.10;99.90
38860;DHT22;24609;48.316;16.174;2022-12-17T00:54:16;0.00;99.90
38860;DHT22;24609;48.316;16.174;2022-12-17T00:57:00;0.10;99.90
38860;DHT22;24609;48.316;16.174;2022-12-17T00:59:45;0.10;99.90
38860;DHT22;24609;48.316;16.174;2022-12-17T01:02:29;0.10;99.90
38860;DHT22;24609;48.316;16.174;2022-12-17T01:05:13;0.10;99.90
38860;DHT22;24609;48.316;16.174;2022-12-17T01:08:09;0.10;99.90
38860;DHT22;24609;48.316;16.174;2022-12-17T01:11:04;0.10;99.90
38860;DHT22;24609;48.316;16.174;2022-12-17T01:13:49;0.00;99.90
38860;DHT22;24609;48.316;16.174;2022-12-17T01:16:33;0.00;99.90
38860;DHT22;24609;48.316;16.174;2022-12-17T01:19:18;0.00;99.90
38860;DHT22;24609;48.316;16.174;2022-12-17T01:22:19;0.00;99.90
38860;DHT22;24609;48.316;16.174;2022-12-17T01:25:03;0.00;99.90
38860;DHT22;24609;48.316;16.174;2022-12-17T01:27:49;0.00;99.90
38860;DHT22;24609;48.316;16.174;2022-12-17T01:30:35;0.00;99.90
38860;DHT22;24609;48.316;16.174;2022-12-17T01:33:20;0.00;99.90
38860;DHT22;24609;48.316;16.174;2022-12-17T01:36:05;0.00;99.90
38860;DHT22;24609;48.316;16.174;2022-12-17T01:38:49;0.00;99.90
38860;DHT22;24609;48.316;16.174;2022-12-17T01:41:33;0.10;99.90
38860;DHT22;24609;48.316;16.174;2022-12-17T01:44:53;0.10;99.90
38860;DHT22;24609;48.316;16.174;2022-12-17T01:47:49;0.10;99.90
38860;DHT22;24609;48.316;16.174;2022-12-17T01:50:37;0.10;99.90
38860;DHT22;24609;48.316;16.174;2022-12-17T01:53:25;0.10;99.90
38860;DHT22;24609;48.316;16.174;2022-12-17T01:56:11;0.10;99.90
38860;DHT22;24609;48.316;16.174;2022-12-17T01:58:57;0.00;99.90
38860;DHT22;24609;48.316;16.174;2022-12-17T02:01:41;0.00;99.90
38860;DHT22;24609;48.316;16.174;2022-12-17T02:04:26;0.10;99.90
38860;DHT22;24609;48.316;16.174;2022-12-17T02:10:22;0.00;99.90
38860;DHT22;24609;48.316;16.174;2022-12-17T02:13:17;0.00;99.90
38860;DHT22;24609;48.316;16.174;2022-12-17T02:16:20;0.10;99.90
38860;DHT22;24609;48.316;16.174;2022-12-17T02:22:08;0.10;99.90
38860;DHT22;24609;48.316;16.174;2022-12-17T02:25:11;0.10;99.90
38860;DHT22;24609;48.316;16.174;2022-12-17T02:27:59;0.10;99.90
38860;DHT22;24609;48.316;16.174;2022-12-17T02:30:43;0.10;99.90
38860;DHT22;24609;48.316;16.174;2022-12-17T02:33:27;0.20;99.90
38860;DHT22;24609;48.316;16.174;2022-12-17T02:36:12;0.20;99.90
38860;DHT22;24609;48.316;16.174;2022-12-17T02:38:56;0.20;99.90
38860;DHT22;24609;48.316;16.174;2022-12-17T02:41:43;0.20;99.90
38860;DHT22;24609;48.316;16.174;2022-12-17T02:44:31;0.20;99.90
38860;DHT22;24609;48.316;16.174;2022-12-17T02:47:16;0.20;99.90
38860;DHT22;24609;48.316;16.174;2022-12-17T02:50:03;0.20;99.90
38860;DHT22;24609;48.316;16.174;2022-12-17T02:52:48;0.30;99.90
38860;DHT22;24609;48.316;16.174;2022-12-17T02:55:33;0.30;99.90
38860;DHT22;24609;48.316;16.174;2022-12-17T02:58:18;0.30;99.90
38860;DHT22;24609;48.316;16.174;2022-12-17T03:01:03;0.30;99.90
38860;DHT22;24609;48.316;16.174;2022-12-17T03:03:47;0.30;99.90
38860;DHT22;24609;48.316;16.174;2022-12-17T03:06:31;0.30;99.90
38860;DHT22;24609;48.316;16.174;2022-12-17T03:09:15;0.30;99.90
38860;DHT22;24609;48.316;16.174;2022-12-17T03:11:59;0.30;99.90
38860;DHT22;24609;48.316;16.174;2022-12-17T03:14:43;0.40;99.90
38860;DHT22;24609;48.316;16.174;2022-12-17T03:17:28;0.30;99.90
38860;DHT22;24609;48.316;16.174;2022-12-17T03:20:12;0.40;99.90
38860;DHT22;24609;48.316;16.174;2022-12-17T03:23:04;0.30;99.90
38860;DHT22;24609;48.316;16.174;2022-12-17T03:25:48;0.40;99.90
38860;DHT22;24609;48.316;16.174;2022-12-17T03:28:33;0.40;99.90
38860;DHT22;24609;48.316;16.174;2022-12-17T03:31:17;0.40;99.90
38860;DHT22;24609;48.316;16.174;2022-12-17T03:34:01;0.40;99.90
38860;DHT22;24609;48.316;16.174;2022-12-17T03:36:45;0.40;99.90
38860;DHT22;24609;48.316;16.174;2022-12-17T03:39:30;0.40;99.90
38860;DHT22;24609;48.316;16.174;2022-12-17T03:42:14;0.40;99.90
38860;DHT22;24609;48.316;16.174;2022-12-17T03:44:58;0.30;99.90
38860;DHT22;24609;48.316;16.174;2022-12-17T03:47:42;0.40;99.90
38860;DHT22;24609;48.316;16.174;2022-12-17T03:50:26;0.40;99.90
38860;DHT22;24609;48.316;16.174;2022-12-17T03:53:11;0.40;99.90
38860;DHT22;24609;48.316;16.174;2022-12-17T03:55:55;0.30;99.90
38860;DHT22;24609;48.316;16.174;2022-12-17T03:58:39;0.30;99.90
38860;DHT22;24609;48.316;16.174;2022-12-17T04:01:23;0.40;99.90
38860;DHT22;24609;48.316;16.174;2022-12-17T04:04:08;0.40;99.90
38860;DHT22;24609;48.316;16.174;2022-12-17T04:06:52;0.30;99.90
38860;DHT22;24609;48.316;16.174;2022-12-17T04:09:36;0.30;99.90
38860;DHT22;24609;48.316;16.174;2022-12-17T04:12:20;0.30;99.90
38860;DHT22;24609;48.316;16.174;2022-12-17T04:15:05;0.30;99.90
38860;DHT22;24609;48.316;16.174;2022-12-17T04:17:49;0.30;99.90
38860;DHT22;24609;48.316;16.174;2022-12-17T04:20:33;0.30;99.90
38860;DHT22;24609;48.316;16.174;2022-12-17T04:23:17;0.30;99.90
38860;DHT22;24609;48.316;16.174;2022-12-17T04:26:02;0.30;99.90
38860;DHT22;24609;48.316;16.174;2022-12-17T04:28:46;0.30;99.90
38860;DHT22;24609;48.316;16.174;2022-12-17T04:31:30;0.30;99.90
38860;DHT22;24609;48.316;16.174;2022-12-17T04:34:14;0.20;99.90
38860;DHT22;24609;48.316;16.174;2022-12-17T04:36:59;0.20;99.90
38860;DHT22;24609;48.316;16.174;2022-12-17T04:39:43;0.10;99.90
38860;DHT22;24609;48.316;16.174;2022-12-17T04:42:27;0.10;99.90
38860;DHT22;24609;48.316;16.174;2022-12-17T04:45:11;0.00;99.90
38860;DHT22;24609;48.316;16.174;2022-12-17T04:48:01;0.10;99.90
38860;DHT22;24609;48.316;16.174;2022-12-17T04:50:45;0.10;99.90
38860;DHT22;24609;48.316;16.174;2022-12-17T04:53:30;0.10;99.90
38860;DHT22;24609;48.316;16.174;2022-12-17T04:56:14;0.10;99.90
38860;DHT22;24609;48.316;16.174;2022-12-17T04:58:58;0.00;99.90
38860;DHT22;24609;48.316;16.174;2022-12-17T05:01:42;0.00;99.90
38860;DHT22;24609;48.316;16.174;2022-12-17T05:04:27;0.00;99.90
38860;DHT22;24609;48.316;16.174;2022-12-17T05:07:11;0.00;99.90
38860;DHT22;24609;48.316;16.174;2022-12-17T05:09:55;0.00;99.90
38860;DHT22;24609;48.316;16.174;2022-12-17T05:12:39;0.00;99.90
38860;DHT22;24609;48.316;16.174;2022-12-17T05:15:23;0.00;99.90
38860;DHT22;24609;48.316;16.174;2022-12-17T05:18:24;0.00;99.90
38860;DHT22;24609;48.316;16.174;2022-12-17T05:21:08;0.00;99.90
38860;DHT22;24609;48.316;16.174;2022-12-17T05:23:53;0.00;99.90
38860;DHT22;24609;48.316;16.174;2022-12-17T05:26:37;0.00;99.90
38860;DHT22;24609;48.316;16.174;2022-12-17T05:29:21;0.10;99.90
38860;DHT22;24609;48.316;16.174;2022-12-17T05:32:05;0.10;99.90
38860;DHT22;24609;48.316;16.174;2022-12-17T05:34:49;0.10;99.90
38860;DHT22;24609;48.316;16.174;2022-12-17T05:37:34;0.10;99.90
38860;DHT22;24609;48.316;16.174;2022-12-17T05:40:18;0.10;99.90
38860;DHT22;24609;48.316;16.174;2022-12-17T05:43:05;0.10;99.90
38860;DHT22;24609;48.316;16.174;2022-12-17T05:45:49;0.10;99.90
38860;DHT22;24609;48.316;16.174;2022-12-17T05:48:35;0.10;99.90
38860;DHT22;24609;48.316;16.174;2022-12-17T05:51:20;0.10;99.90
38860;DHT22;24609;48.316;16.174;2022-12-17T05:54:05;0.10;99.90
38860;DHT22;24609;48.316;16.174;2022-12-17T05:56:49;0.10;99.90
38860;DHT22;24609;48.316;16.174;2022-12-17T05:59:33;0.00;99.90
38860;DHT22;24609;48.316;16.174;2022-12-17T06:02:17;0.10;99.90
38860;DHT22;24609;48.316;16.174;2022-12-17T06:05:01;0.10;99.90
38860;DHT22;24609;48.316;16.174;2022-12-17T06:08:04;0.10;99.90
38860;DHT22;24609;48.316;16.174;2022-12-17T06:10:49;0.00;99.90
38860;DHT22;24609;48.316;16.174;2022-12-17T06:13:33;0.10;99.90
38860;DHT22;24609;48.316;16.174;2022-12-17T06:16:18;0.10;99.90
38860;DHT22;24609;48.316;16.174;2022-12-17T06:19:02;0.10;99.90
38860;DHT22;24609;48.316;16.174;2022-12-17T06:21:46;0.10;99.90
38860;DHT22;24609;48.316;16.174;2022-12-17T06:24:30;0.10;99.90
38860;DHT22;24609;48.316;16.174;2022-12-17T06:27:15;0.10;99.90
38860;DHT22;24609;48.316;16.174;2022-12-17T06:29:59;0.10;99.90
38860;DHT22;24609;48.316;16.174;2022-12-17T06:32:43;0.10;99.90
38860;DHT22;24609;48.316;16.174;2022-12-17T06:35:28;0.10;99.90
38860;DHT22;24609;48.316;16.174;2022-12-17T06:38:12;0.10;99.90
38860;DHT22;24609;48.316;16.174;2022-12-17T06:40:59;0.10;99.90
38860;DHT22;24609;48.316;16.174;2022-12-17T06:43:44;0.10;99.90
38860;DHT22;24609;48.316;16.174;2022-12-17T06:46:29;0.10;99.90
38860;DHT22;24609;48.316;16.174;2022-12-17T06:49:13;0.10;99.90
38860;DHT22;24609;48.316;16.174;2022-12-17T06:51:57;0.20;99.90
38860;DHT22;24609;48.316;16.174;2022-12-17T06:54:41;0.10;99.90
38860;DHT22;24609;48.316;16.174;2022-12-17T06:57:26;0.20;99.90
38860;DHT22;24609;48.316;16.174;2022-12-17T07:00:14;0.20;99.90
38860;DHT22;24609;48.316;16.174;2022-12-17T07:02:58;0.20;99.90
38860;DHT22;24609;48.316;16.174;2022-12-17T07:05:42;0.20;99.90
38860;DHT22;24609;48.316;16.174;2022-12-17T07:08:27;0.20;99.90
38860;DHT22;24609;48.316;16.174;2022-12-17T07:11:11;0.20;99.90
38860;DHT22;24609;48.316;16.174;2022-12-17T07:13:55;0.20;99.90
38860;DHT22;24609;48.316;16.174;2022-12-17T07:16:39;0.20;99.90
38860;DHT22;24609;48.316;16.174;2022-12-17T07:19:24;0.30;99.90
38860;DHT22;24609;48.316;16.174;2022-12-17T07:22:08;0.30;99.90
38860;DHT22;24609;48.316;16.174;2022-12-17T07:24:52;0.30;99.90
38860;DHT22;24609;48.316;16.174;2022-12-17T07:27:36;0.30;99.90
38860;DHT22;24609;48.316;16.174;2022-12-17T07:30:20;0.30;99.90
38860;DHT22;24609;48.316;16.174;2022-12-17T07:33:06;0.30;99.90
38860;DHT22;24609;48.316;16.174;2022-12-17T07:35:54;0.30;99.90
38860;DHT22;24609;48.316;16.174;2022-12-17T07:38:39;0.30;99.90
38860;DHT22;24609;48.316;16.174;2022-12-17T07:41:24;0.30;99.90
38860;DHT22;24609;48.316;16.174;2022-12-17T07:44:08;0.40;99.90
38860;DHT22;24609;48.316;16.174;2022-12-17T07:46:52;0.30;99.90
38860;DHT22;24609;48.316;16.174;2022-12-17T07:49:36;0.40;99.90
38860;DHT22;24609;48.316;16.174;2022-12-17T07:52:20;0.30;99.90
38860;DHT22;24609;48.316;16.174;2022-12-17T07:55:05;0.40;99.90
38860;DHT22;24609;48.316;16.174;2022-12-17T07:58:08;0.40;99.90
38860;DHT22;24609;48.316;16.174;2022-12-17T08:00:53;0.40;99.90
38860;DHT22;24609;48.316;16.174;2022-12-17T08:03:37;0.50;99.90
38860;DHT22;24609;48.316;16.174;2022-12-17T08:06:21;0.50;99.90
38860;DHT22;24609;48.316;16.174;2022-12-17T08:09:06;0.60;99.90
38860;DHT22;24609;48.316;16.174;2022-12-17T08:11:50;0.60;99.90
38860;DHT22;24609;48.316;16.174;2022-12-17T08:14:35;0.60;99.90
38860;DHT22;24609;48.316;16.174;2022-12-17T08:17:19;0.60;99.90
38860;DHT22;24609;48.316;16.174;2022-12-17T08:20:04;0.60;99.90
38860;DHT22;24609;48.316;16.174;2022-12-17T08:22:48;0.70;99.90
38860;DHT22;24609;48.316;16.174;2022-12-17T08:25:33;0.70;99.90
38860;DHT22;24609;48.316;16.174;2022-12-17T08:28:17;0.70;99.90
38860;DHT22;24609;48.316;16.174;2022-12-17T08:31:01;0.70;99.90
38860;DHT22;24609;48.316;16.174;2022-12-17T08:33:46;0.70;93.50
38860;DHT22;24609;48.316;16.174;2022-12-17T08:36:30;0.70;99.90
38860;DHT22;24609;48.316;16.174;2022-12-17T08:39:14;0.70;99.90
38860;DHT22;24609;48.316;16.174;2022-12-17T08:41:58;0.70;99.90
38860;DHT22;24609;48.316;16.174;2022-12-17T08:44:43;0.80;99.90
38860;DHT22;24609;48.316;16.174;2022-12-17T08:47:27;0.80;99.90
38860;DHT22;24609;48.316;16.174;2022-12-17T08:50:11;0.70;99.90
38860;DHT22;24609;48.316;16.174;2022-12-17T08:52:59;0.70;99.90
38860;DHT22;24609;48.316;16.174;2022-12-17T08:55:44;0.70;99.90
38860;DHT22;24609;48.316;16.174;2022-12-17T08:58:28;0.80;99.90
38860;DHT22;24609;48.316;16.174;2022-12-17T09:01:12;0.80;99.90
38860;DHT22;24609;48.316;16.174;2022-12-17T09:03:57;0.80;99.90
38860;DHT22;24609;48.316;16.174;2022-12-17T09:06:41;0.70;99.90
38860;DHT22;24609;48.316;16.174;2022-12-17T09:09:25;0.80;99.90
38860;DHT22;24609;48.316;16.174;2022-12-17T09:12:09;0.80;96.10
38860;DHT22;24609;48.316;16.174;2022-12-17T09:14:54;0.80;52.30
38860;DHT22;24609;48.316;16.174;2022-12-17T09:17:39;0.90;32.90
38860;DHT22;24609;48.316;16.174;2022-12-17T09:20:24;0.80;36.50
38860;DHT22;24609;48.316;16.174;2022-12-17T09:23:08;0.80;29.50
38860;DHT22;24609;48.316;16.174;2022-12-17T09:25:56;0.70;39.30
38860;DHT22;24609;48.316;16.174;2022-12-17T09:28:41;0.70;32.20
38860;DHT22;24609;48.316;16.174;2022-12-17T09:31:26;0.70;42.80
38860;DHT22;24609;48.316;16.174;2022-12-17T09:34:10;0.70;1.00
38860;DHT22;24609;48.316;16.174;2022-12-17T09:36:55;0.70;26.70
38860;DHT22;24609;48.316;16.174;2022-12-17T09:39:39;0.70;27.00
38860;DHT22;24609;48.316;16.174;2022-12-17T09:45:36;0.70;13.90
38860;DHT22;24609;48.316;16.174;2022-12-17T09:51:28;0.70;1.00
38860;DHT22;24609;48.316;16.174;2022-12-17T09:54:37;0.70;1.00
38860;DHT22;24609;48.316;16.174;2022-12-17T09:57:29;0.70;1.00
38860;DHT22;24609;48.316;16.174;2022-12-17T10:00:15;0.70;1.00
38860;DHT22;24609;48.316;16.174;2022-12-17T10:03:11;0.80;1.00
38860;DHT22;24609;48.316;16.174;2022-12-17T10:06:08;0.80;1.00
38860;DHT22;24609;48.316;16.174;2022-12-17T10:09:01;0.80;1.00
38860;DHT22;24609;48.316;16.174;2022-12-17T10:11:49;0.70;1.00
38860;DHT22;24609;48.316;16.174;2022-12-17T10:14:34;0.70;1.00
38860;DHT22;24609;48.316;16.174;2022-12-17T10:17:20;0.70;1.00
38860;DHT22;24609;48.316;16.174;2022-12-17T10:23:23;0.90;1.00
38860;DHT22;24609;48.316;16.174;2022-12-17T10:26:08;1.00;1.00
38860;DHT22;24609;48.316;16.174;2022-12-17T10:29:04;1.10;1.00
38860;DHT22;24609;48.316;16.174;2022-12-17T10:31:49;1.20;1.00
38860;DHT22;24609;48.316;16.174;2022-12-17T10:34:37;1.20;1.00
38860;DHT22;24609;48.316;16.174;2022-12-17T10:37:30;1.30;1.00
38860;DHT22;24609;48.316;16.174;2022-12-17T10:40:30;1.40;1.00
38860;DHT22;24609;48.316;16.174;2022-12-17T10:43:32;1.40;1.00
38860;DHT22;24609;48.316;16.174;2022-12-17T10:46:32;1.40;1.00
38860;DHT22;24609;48.316;16.174;2022-12-17T10:49:19;1.40;1.00
38860;DHT22;24609;48.316;16.174;2022-12-17T10:52:22;1.30;1.00
38860;DHT22;24609;48.316;16.174;2022-12-17T10:55:34;1.40;1.00
38860;DHT22;24609;48.316;16.174;2022-12-17T10:58:22;1.30;1.00
38860;DHT22;24609;48.316;16.174;2022-12-17T11:01:10;1.30;1.00
38860;DHT22;24609;48.316;16.174;2022-12-17T11:03:57;1.30;1.00
38860;DHT22;24609;48.316;16.174;2022-12-17T11:06:50;1.30;1.00
38860;DHT22;24609;48.316;16.174;2022-12-17T11:09:42;1.30;1.00
38860;DHT22;24609;48.316;16.174;2022-12-17T11:12:49;1.40;1.00
38860;DHT22;24609;48.316;16.174;2022-12-17T11:18:36;1.30;1.00
38860;DHT22;24609;48.316;16.174;2022-12-17T11:21:50;1.30;1.00
38860;DHT22;24609;48.316;16.174;2022-12-17T11:27:30;1.30;1.00
38860;DHT22;24609;48.316;16.174;2022-12-17T11:30:16;1.30;1.00
38860;DHT22;24609;48.316;16.174;2022-12-17T11:33:28;1.20;1.00
38860;DHT22;24609;48.316;16.174;2022-12-17T11:36:41;1.30;1.00
38860;DHT22;24609;48.316;16.174;2022-12-17T11:39:46;1.30;1.00
38860;DHT22;24609;48.316;16.174;2022-12-17T11:42:42;1.30;1.00
38860;DHT22;24609;48.316;16.174;2022-12-17T11:45:36;1.30;1.00
38860;DHT22;24609;48.316;16.174;2022-12-17T11:54:25;1.30;1.00
38860;DHT22;24609;48.316;16.174;2022-12-17T12:00:21;1.30;1.00
38860;DHT22;24609;48.316;16.174;2022-12-17T12:03:23;1.30;1.00
38860;DHT22;24609;48.316;16.174;2022-12-17T12:06:48;1.30;1.00
38860;DHT22;24609;48.316;16.174;2022-12-17T12:18:49;1.50;1.00
38860;DHT22;24609;48.316;16.174;2022-12-17T12:25:07;1.50;1.00
38860;DHT22;24609;48.316;16.174;2022-12-17T12:31:28;1.40;1.00
38860;DHT22;24609;48.316;16.174;2022-12-17T12:34:17;1.40;1.00
38860;DHT22;24609;48.316;16.174;2022-12-17T12:37:04;1.30;1.00
38860;DHT22;24609;48.316;16.174;2022-12-17T12:39:55;1.30;1.00
38860;DHT22;24609;48.316;16.174;2022-12-17T12:42:55;1.20;1.00
38860;DHT22;24609;48.316;16.174;2022-12-17T12:45:51;1.20;1.00
38860;DHT22;24609;48.316;16.174;2022-12-17T12:48:49;1.20;1.00
38860;DHT22;24609;48.316;16.174;2022-12-17T12:51:37;1.20;1.00
38860;DHT22;24609;48.316;16.174;2022-12-17T12:54:31;1.20;1.00
38860;DHT22;24609;48.316;16.174;2022-12-17T12:57:34;1.20;1.00
38860;DHT22;24609;48.316;16.174;2022-12-17T13:00:29;1.20;1.00
38860;DHT22;24609;48.316;16.174;2022-12-17T13:03:30;1.20;1.00
38860;DHT22;24609;48.316;16.174;2022-12-17T13:14:43;1.20;99.90
38860;DHT22;24609;48.316;16.174;2022-12-17T13:22:27;1.20;99.90
38860;DHT22;24609;48.316;16.174;2022-12-17T13:25:07;1.20;99.90
38860;DHT22;24609;48.316;16.174;2022-12-17T13:32:49;1.20;17.70
38860;DHT22;24609;48.316;16.174;2022-12-17T13:35:56;1.20;1.00
38860;DHT22;24609;48.316;16.174;2022-12-17T13:41:14;1.20;99.90
38860;DHT22;24609;48.316;16.174;2022-12-17T13:43:47;1.20;1.00
38860;DHT22;24609;48.316;16.174;2022-12-17T13:46:39;1.20;99.90
38860;DHT22;24609;48.316;16.174;2022-12-17T13:49:22;1.10;99.90
38860;DHT22;24609;48.316;16.174;2022-12-17T13:52:05;1.10;99.90
38860;DHT22;24609;48.316;16.174;2022-12-17T13:54:31;1.10;61.50
38860;DHT22;24609;48.316;16.174;2022-12-17T13:57:08;1.00;1.00
38860;DHT22;24609;48.316;16.174;2022-12-17T13:59:34;1.00;99.90
38860;DHT22;24609;48.316;16.174;2022-12-17T14:01:59;1.00;99.90
38860;DHT22;24609;48.316;16.174;2022-12-17T14:04:27;1.00;99.90
38860;DHT22;24609;48.316;16.174;2022-12-17T14:06:56;1.00;1.00
38860;DHT22;24609;48.316;16.174;2022-12-17T14:09:37;1.00;1.00
38860;DHT22;24609;48.316;16.174;2022-12-17T14:12:04;1.00;99.90
38860;DHT22;24609;48.316;16.174;2022-12-17T14:15:10;1.00;1.00
38860;DHT22;24609;48.316;16.174;2022-12-17T14:17:44;0.90;1.00
38860;DHT22;24609;48.316;16.174;2022-12-17T14:20:17;0.90;99.90
38860;DHT22;24609;48.316;16.174;2022-12-17T14:22:46;0.80;99.90
38860;DHT22;24609;48.316;16.174;2022-12-17T14:27:52;0.70;1.00
38860;DHT22;24609;48.316;16.174;2022-12-17T14:30:34;0.70;29.60
38860;DHT22;24609;48.316;16.174;2022-12-17T14:33:00;0.70;99.90
38860;DHT22;24609;48.316;16.174;2022-12-17T14:35:30;0.60;99.90
38860;DHT22;24609;48.316;16.174;2022-12-17T14:37:58;0.60;99.90
38860;DHT22;24609;48.316;16.174;2022-12-17T14:40:24;0.60;99.90
38860;DHT22;24609;48.316;16.174;2022-12-17T14:42:51;0.60;99.90
38860;DHT22;24609;48.316;16.174;2022-12-17T14:45:26;0.60;99.90
38860;DHT22;24609;48.316;16.174;2022-12-17T14:47:59;0.60;99.90
38860;DHT22;24609;48.316;16.174;2022-12-17T14:50:29;0.60;58.10
38860;DHT22;24609;48.316;16.174;2022-12-17T14:52:57;0.60;99.90
38860;DHT22;24609;48.316;16.174;2022-12-17T14:58:14;0.60;1.00
38860;DHT22;24609;48.316;16.174;2022-12-17T15:00:45;0.60;1.00
38860;DHT22;24609;48.316;16.174;2022-12-17T15:03:41;0.60;1.00
38860;DHT22;24609;48.316;16.174;2022-12-17T15:06:09;0.60;99.90
38860;DHT22;24609;48.316;16.174;2022-12-17T15:08:39;0.60;99.90
38860;DHT22;24609;48.316;16.174;2022-12-17T15:11:05;0.60;99.90
38860;DHT22;24609;48.316;16.174;2022-12-17T15:13:31;0.60;99.90
38860;DHT22;24609;48.316;16.174;2022-12-17T15:15:57;0.60;99.90
38860;DHT22;24609;48.316;16.174;2022-12-17T15:18:23;0.60;99.90
38860;DHT22;24609;48.316;16.174;2022-12-17T15:20:49;0.60;99.90
38860;DHT22;24609;48.316;16.174;2022-12-17T15:23:20;0.60;99.90
38860;DHT22;24609;48.316;16.174;2022-12-17T15:25:47;0.50;99.90
38860;DHT22;24609;48.316;16.174;2022-12-17T15:28:15;0.50;99.90
38860;DHT22;24609;48.316;16.174;2022-12-17T15:30:41;0.50;99.90
38860;DHT22;24609;48.316;16.174;2022-12-17T15:33:09;0.50;99.90
38860;DHT22;24609;48.316;16.174;2022-12-17T15:35:36;0.50;99.90
38860;DHT22;24609;48.316;16.174;2022-12-17T15:38:03;0.50;99.90
38860;DHT22;24609;48.316;16.174;2022-12-17T15:40:29;0.50;1.00
38860;DHT22;24609;48.316;16.174;2022-12-17T15:42:54;0.50;1.00
38860;DHT22;24609;48.316;16.174;2022-12-17T15:45:39;0.50;99.90
38860;DHT22;24609;48.316;16.174;2022-12-17T15:48:05;0.50;99.90
38860;DHT22;24609;48.316;16.174;2022-12-17T15:50:30;0.50;99.90
38860;DHT22;24609;48.316;16.174;2022-12-17T15:52:56;0.50;17.00
38860;DHT22;24609;48.316;16.174;2022-12-17T15:55:22;0.50;99.90
38860;DHT22;24609;48.316;16.174;2022-12-17T15:57:48;0.50;1.00
38860;DHT22;24609;48.316;16.174;2022-12-17T16:00:13;0.40;1.00
38860;DHT22;24609;48.316;16.174;2022-12-17T16:02:40;0.40;1.00
38860;DHT22;24609;48.316;16.174;2022-12-17T16:05:06;0.40;1.00
38860;DHT22;24609;48.316;16.174;2022-12-17T16:07:32;0.40;99.90
38860;DHT22;24609;48.316;16.174;2022-12-17T16:09:58;0.40;99.90
38860;DHT22;24609;48.316;16.174;2022-12-17T16:12:23;0.40;1.00
38860;DHT22;24609;48.316;16.174;2022-12-17T16:14:49;0.40;99.90
38860;DHT22;24609;48.316;16.174;2022-12-17T16:17:15;0.40;1.00
38860;DHT22;24609;48.316;16.174;2022-12-17T16:19:40;0.40;99.90
38860;DHT22;24609;48.316;16.174;2022-12-17T16:22:06;0.40;93.20
38860;DHT22;24609;48.316;16.174;2022-12-17T16:24:32;0.40;13.70
38860;DHT22;24609;48.316;16.174;2022-12-17T16:26:57;0.40;1.00
38860;DHT22;24609;48.316;16.174;2022-12-17T16:29:23;0.40;99.90
38860;DHT22;24609;48.316;16.174;2022-12-17T16:31:49;0.40;99.90
38860;DHT22;24609;48.316;16.174;2022-12-17T16:34:15;0.40;51.80
38860;DHT22;24609;48.316;16.174;2022-12-17T16:36:41;0.40;1.00
38860;DHT22;24609;48.316;16.174;2022-12-17T16:39:06;0.40;1.00
38860;DHT22;24609;48.316;16.174;2022-12-17T16:41:32;0.40;1.00
38860;DHT22;24609;48.316;16.174;2022-12-17T16:43:58;0.40;99.90
38860;DHT22;24609;48.316;16.174;2022-12-17T16:48:51;0.30;1.00
38860;DHT22;24609;48.316;16.174;2022-12-17T16:51:18;0.40;1.00
38860;DHT22;24609;48.316;16.174;2022-12-17T16:53:45;0.30;99.90
38860;DHT22;24609;48.316;16.174;2022-12-17T16:56:18;0.30;99.90
38860;DHT22;24609;48.316;16.174;2022-12-17T16:58:44;0.30;99.90
38860;DHT22;24609;48.316;16.174;2022-12-17T17:01:10;0.30;99.90
38860;DHT22;24609;48.316;16.174;2022-12-17T17:03:40;0.20;1.00
38860;DHT22;24609;48.316;16.174;2022-12-17T17:06:07;0.30;99.90
38860;DHT22;24609;48.316;16.174;2022-12-17T17:08:35;0.30;1.00
38860;DHT22;24609;48.316;16.174;2022-12-17T17:13:36;0.20;99.90
38860;DHT22;24609;48.316;16.174;2022-12-17T17:16:02;0.20;99.90
38860;DHT22;24609;48.316;16.174;2022-12-17T17:18:28;0.20;1.00
38860;DHT22;24609;48.316;16.174;2022-12-17T17:20:54;0.30;1.00
38860;DHT22;24609;48.316;16.174;2022-12-17T17:23:20;0.20;1.00
38860;DHT22;24609;48.316;16.174;2022-12-17T17:25:46;0.20;1.00
38860;DHT22;24609;48.316;16.174;2022-12-17T17:28:12;0.30;1.00
38860;DHT22;24609;48.316;16.174;2022-12-17T17:30:37;0.20;99.90
38860;DHT22;24609;48.316;16.174;2022-12-17T17:33:03;0.20;99.90
38860;DHT22;24609;48.316;16.174;2022-12-17T17:35:29;0.20;1.00
38860;DHT22;24609;48.316;16.174;2022-12-17T17:37:54;0.20;1.00
38860;DHT22;24609;48.316;16.174;2022-12-17T17:40:20;0.20;1.00
38860;DHT22;24609;48.316;16.174;2022-12-17T17:42:46;0.20;99.90
38860;DHT22;24609;48.316;16.174;2022-12-17T17:45:11;0.20;99.90
38860;DHT22;24609;48.316;16.174;2022-12-17T17:47:37;0.20;99.90
38860;DHT22;24609;48.316;16.174;2022-12-17T17:50:03;0.20;99.90
38860;DHT22;24609;48.316;16.174;2022-12-17T17:52:28;0.20;99.90
38860;DHT22;24609;48.316;16.174;2022-12-17T17:54:54;0.20;99.90
38860;DHT22;24609;48.316;16.174;2022-12-17T17:57:20;0.20;1.00
38860;DHT22;24609;48.316;16.174;2022-12-17T17:59:45;0.20;99.90
38860;DHT22;24609;48.316;16.174;2022-12-17T18:02:11;0.20;1.00
38860;DHT22;24609;48.316;16.174;2022-12-17T18:04:37;0.20;99.90
38860;DHT22;24609;48.316;16.174;2022-12-17T18:07:02;0.20;99.90
38860;DHT22;24609;48.316;16.174;2022-12-17T18:09:28;0.20;1.00
38860;DHT22;24609;48.316;16.174;2022-12-17T18:11:54;0.20;99.90
38860;DHT22;24609;48.316;16.174;2022-12-17T18:14:19;0.20;99.90
38860;DHT22;24609;48.316;16.174;2022-12-17T18:16:47;0.20;1.00
38860;DHT22;24609;48.316;16.174;2022-12-17T18:19:15;0.20;1.00
38860;DHT22;24609;48.316;16.174;2022-12-17T18:21:41;0.20;1.00
38860;DHT22;24609;48.316;16.174;2022-12-17T18:24:15;0.20;1.00
38860;DHT22;24609;48.316;16.174;2022-12-17T18:26:43;0.20;7.50